sensor_id;sensor_type;location;lat;lon;timestamp;P1;durP1;ratioP1;P2;durP2;ratioP2
71941;SDS011;59997;53.300;-6.260;2023-09-19T00:02:17;15.07;;;2.60;;
71941;SDS011;59997;53.300;-6.260;2023-09-19T00:04:43;10.27;;;1.70;;
71941;SDS011;59997;53.300;-6.260;2023-09-19T00:07:10;14.25;;;2.17;;
71941;SDS011;59997;53.300;-6.260;2023-09-19T00:09:35;13.10;;;1.67;;
71941;SDS011;59997;53.300;-6.260;2023-09-19T00:12:06;10.73;;;1.30;;
71941;SDS011;59997;53.300;-6.260;2023-09-19T00:14:34;13.75;;;1.30;;
71941;SDS011;59997;53.300;-6.260;2023-09-19T00:17:01;12.23;;;1.60;;
71941;SDS011;59997;53.300;-6.260;2023-09-19T00:19:33;12.80;;;1.20;;
71941;SDS011;59997;53.300;-6.260;2023-09-19T00:22:02;12.75;;;1.30;;
71941;SDS011;59997;53.300;-6.260;2023-09-19T00:24:28;13.93;;;1.67;;
71941;SDS011;59997;53.300;-6.260;2023-09-19T00:26:53;10.63;;;1.30;;
71941;SDS011;59997;53.300;-6.260;2023-09-19T00:29:20;15.27;;;1.70;;
71941;SDS011;59997;53.300;-6.260;2023-09-19T00:31:46;14.73;;;1.27;;
71941;SDS011;59997;53.300;-6.260;2023-09-19T00:34:11;16.13;;;1.87;;
71941;SDS011;59997;53.300;-6.260;2023-09-19T00:36:37;12.25;;;1.38;;
71941;SDS011;59997;53.300;-6.260;2023-09-19T00:39:08;16.03;;;1.73;;
71941;SDS011;59997;53.300;-6.260;2023-09-19T00:41:34;11.13;;;1.20;;
71941;SDS011;59997;53.300;-6.260;2023-09-19T00:44:03;16.40;;;1.83;;
71941;SDS011;59997;53.300;-6.260;2023-09-19T00:46:29;15.35;;;1.58;;
71941;SDS011;59997;53.300;-6.260;2023-09-19T00:48:55;10.93;;;1.60;;
71941;SDS011;59997;53.300;-6.260;2023-09-19T00:51:22;13.52;;;2.30;;
71941;SDS011;59997;53.300;-6.260;2023-09-19T00:53:51;9.35;;;1.30;;
71941;SDS011;59997;53.300;-6.260;2023-09-19T00:56:17;9.93;;;1.10;;
71941;SDS011;59997;53.300;-6.260;2023-09-19T00:58:47;14.73;;;1.25;;
71941;SDS011;59997;53.300;-6.260;2023-09-19T01:01:13;10.67;;;1.40;;
71941;SDS011;59997;53.300;-6.260;2023-09-19T01:03:40;11.50;;;0.90;;
71941;SDS011;59997;53.300;-6.260;2023-09-19T01:06:06;6.40;;;0.65;;
71941;SDS011;59997;53.300;-6.260;2023-09-19T01:08:33;11.70;;;0.82;;
71941;SDS011;59997;53.300;-6.260;2023-09-19T01:11:01;5.90;;;0.70;;
71941;SDS011;59997;53.300;-6.260;2023-09-19T01:14:01;6.93;;;0.67;;
71941;SDS011;59997;53.300;-6.260;2023-09-19T01:16:45;8.60;;;0.90;;
71941;SDS011;59997;53.300;-6.260;2023-09-19T01:22:06;8.32;;;0.75;;
71941;SDS011;59997;53.300;-6.260;2023-09-19T01:31:09;6.20;;;0.50;;
71941;SDS011;59997;53.300;-6.260;2023-09-19T01:36:27;5.43;;;0.45;;
71941;SDS011;59997;53.300;-6.260;2023-09-19T01:38:54;5.70;;;0.50;;
71941;SDS011;59997;53.300;-6.260;2023-09-19T01:41:26;4.73;;;0.60;;
71941;SDS011;59997;53.300;-6.260;2023-09-19T01:44:02;6.43;;;0.70;;
71941;SDS011;59997;53.300;-6.260;2023-09-19T01:46:34;10.23;;;0.93;;
71941;SDS011;59997;53.300;-6.260;2023-09-19T01:49:05;9.10;;;1.23;;
71941;SDS011;59997;53.300;-6.260;2023-09-19T01:51:55;8.68;;;0.90;;
71941;SDS011;59997;53.300;-6.260;2023-09-19T01:54:33;7.10;;;1.37;;
71941;SDS011;59997;53.300;-6.260;2023-09-19T01:57:05;6.80;;;0.98;;
71941;SDS011;59997;53.300;-6.260;2023-09-19T01:59:40;7.47;;;1.05;;
71941;SDS011;59997;53.300;-6.260;2023-09-19T02:02:10;8.80;;;1.17;;
71941;SDS011;59997;53.300;-6.260;2023-09-19T02:04:37;8.57;;;1.00;;
71941;SDS011;59997;53.300;-6.260;2023-09-19T02:07:03;8.30;;;1.00;;
71941;SDS011;59997;53.300;-6.260;2023-09-19T02:09:31;6.78;;;1.33;;
71941;SDS011;59997;53.300;-6.260;2023-09-19T02:12:00;7.80;;;0.83;;
71941;SDS011;59997;53.300;-6.260;2023-09-19T02:14:26;7.90;;;1.10;;
71941;SDS011;59997;53.300;-6.260;2023-09-19T02:16:54;8.02;;;1.52;;
71941;SDS011;59997;53.300;-6.260;2023-09-19T02:19:20;9.87;;;1.30;;
71941;SDS011;59997;53.300;-6.260;2023-09-19T02:21:46;8.90;;;1.02;;
71941;SDS011;59997;53.300;-6.260;2023-09-19T02:24:13;8.60;;;1.30;;
71941;SDS011;59997;53.300;-6.260;2023-09-19T02:26:40;10.38;;;1.90;;
71941;SDS011;59997;53.300;-6.260;2023-09-19T02:29:05;9.23;;;1.70;;
71941;SDS011;59997;53.300;-6.260;2023-09-19T02:31:31;11.30;;;1.77;;
71941;SDS011;59997;53.300;-6.260;2023-09-19T02:33:56;8.70;;;1.87;;
71941;SDS011;59997;53.300;-6.260;2023-09-19T02:36:22;9.23;;;1.50;;
71941;SDS011;59997;53.300;-6.260;2023-09-19T02:38:48;9.93;;;1.35;;
71941;SDS011;59997;53.300;-6.260;2023-09-19T02:41:14;10.07;;;1.80;;
71941;SDS011;59997;53.300;-6.260;2023-09-19T02:43:40;8.80;;;1.33;;
71941;SDS011;59997;53.300;-6.260;2023-09-19T02:46:05;8.73;;;1.27;;
71941;SDS011;59997;53.300;-6.260;2023-09-19T02:48:31;9.02;;;1.23;;
71941;SDS011;59997;53.300;-6.260;2023-09-19T02:50:57;7.27;;;1.30;;
71941;SDS011;59997;53.300;-6.260;2023-09-19T02:53:22;10.23;;;1.27;;
71941;SDS011;59997;53.300;-6.260;2023-09-19T02:55:49;9.63;;;1.35;;
71941;SDS011;59997;53.300;-6.260;2023-09-19T02:58:15;8.50;;;1.30;;
71941;SDS011;59997;53.300;-6.260;2023-09-19T03:00:41;7.38;;;1.17;;
71941;SDS011;59997;53.300;-6.260;2023-09-19T03:03:07;8.47;;;1.20;;
71941;SDS011;59997;53.300;-6.260;2023-09-19T03:05:33;10.27;;;1.00;;
71941;SDS011;59997;53.300;-6.260;2023-09-19T03:07:59;6.53;;;1.08;;
71941;SDS011;59997;53.300;-6.260;2023-09-19T03:10:28;6.60;;;1.17;;
71941;SDS011;59997;53.300;-6.260;2023-09-19T03:12:54;5.85;;;0.90;;
71941;SDS011;59997;53.300;-6.260;2023-09-19T03:15:20;4.57;;;0.57;;
71941;SDS011;59997;53.300;-6.260;2023-09-19T03:17:47;5.95;;;0.70;;
71941;SDS011;59997;53.300;-6.260;2023-09-19T03:20:13;6.70;;;1.00;;
71941;SDS011;59997;53.300;-6.260;2023-09-19T03:22:39;5.77;;;0.70;;
71941;SDS011;59997;53.300;-6.260;2023-09-19T03:25:05;7.20;;;0.90;;
71941;SDS011;59997;53.300;-6.260;2023-09-19T03:27:35;5.18;;;0.85;;
71941;SDS011;59997;53.300;-6.260;2023-09-19T03:30:01;6.10;;;0.80;;
71941;SDS011;59997;53.300;-6.260;2023-09-19T03:32:31;6.30;;;0.67;;
71941;SDS011;59997;53.300;-6.260;2023-09-19T03:34:57;5.40;;;0.70;;
71941;SDS011;59997;53.300;-6.260;2023-09-19T03:37:22;4.73;;;0.40;;
71941;SDS011;59997;53.300;-6.260;2023-09-19T03:39:48;4.90;;;0.50;;
71941;SDS011;59997;53.300;-6.260;2023-09-19T03:42:13;4.20;;;0.63;;
71941;SDS011;59997;53.300;-6.260;2023-09-19T03:44:38;5.60;;;0.70;;
71941;SDS011;59997;53.300;-6.260;2023-09-19T03:47:04;15.83;;;1.10;;
71941;SDS011;59997;53.300;-6.260;2023-09-19T03:49:30;3.40;;;0.40;;
71941;SDS011;59997;53.300;-6.260;2023-09-19T03:51:55;5.85;;;0.70;;
71941;SDS011;59997;53.300;-6.260;2023-09-19T03:54:21;7.87;;;1.17;;
71941;SDS011;59997;53.300;-6.260;2023-09-19T03:56:46;6.75;;;0.90;;
71941;SDS011;59997;53.300;-6.260;2023-09-19T03:59:12;6.93;;;1.10;;
71941;SDS011;59997;53.300;-6.260;2023-09-19T04:01:38;7.55;;;1.00;;
71941;SDS011;59997;53.300;-6.260;2023-09-19T04:04:06;5.78;;;0.80;;
71941;SDS011;59997;53.300;-6.260;2023-09-19T04:06:35;4.47;;;0.70;;
71941;SDS011;59997;53.300;-6.260;2023-09-19T04:09:03;5.68;;;0.90;;
71941;SDS011;59997;53.300;-6.260;2023-09-19T04:11:31;5.10;;;0.65;;
71941;SDS011;59997;53.300;-6.260;2023-09-19T04:13:58;5.37;;;0.70;;
71941;SDS011;59997;53.300;-6.260;2023-09-19T04:16:24;5.88;;;0.50;;
71941;SDS011;59997;53.300;-6.260;2023-09-19T04:18:49;5.47;;;0.57;;
71941;SDS011;59997;53.300;-6.260;2023-09-19T04:21:15;4.93;;;0.88;;
71941;SDS011;59997;53.300;-6.260;2023-09-19T04:23:40;7.20;;;1.57;;
71941;SDS011;59997;53.300;-6.260;2023-09-19T04:26:06;6.80;;;0.60;;
71941;SDS011;59997;53.300;-6.260;2023-09-19T04:28:32;5.03;;;0.80;;
71941;SDS011;59997;53.300;-6.260;2023-09-19T04:30:59;5.22;;;0.77;;
71941;SDS011;59997;53.300;-6.260;2023-09-19T04:33:25;4.18;;;0.70;;
71941;SDS011;59997;53.300;-6.260;2023-09-19T04:35:54;4.07;;;0.70;;
71941;SDS011;59997;53.300;-6.260;2023-09-19T04:38:20;6.00;;;0.82;;
71941;SDS011;59997;53.300;-6.260;2023-09-19T04:40:46;3.70;;;0.40;;
71941;SDS011;59997;53.300;-6.260;2023-09-19T04:43:11;3.23;;;0.50;;
71941;SDS011;59997;53.300;-6.260;2023-09-19T04:45:38;3.65;;;0.47;;
71941;SDS011;59997;53.300;-6.260;2023-09-19T04:48:05;5.00;;;0.70;;
71941;SDS011;59997;53.300;-6.260;2023-09-19T04:50:37;7.83;;;1.10;;
71941;SDS011;59997;53.300;-6.260;2023-09-19T04:53:03;4.22;;;0.60;;
71941;SDS011;59997;53.300;-6.260;2023-09-19T04:55:29;3.80;;;0.55;;
71941;SDS011;59997;53.300;-6.260;2023-09-19T04:57:55;5.47;;;0.70;;
71941;SDS011;59997;53.300;-6.260;2023-09-19T05:00:21;3.83;;;0.60;;
71941;SDS011;59997;53.300;-6.260;2023-09-19T05:02:53;3.53;;;0.60;;
71941;SDS011;59997;53.300;-6.260;2023-09-19T05:05:23;3.53;;;0.40;;
71941;SDS011;59997;53.300;-6.260;2023-09-19T05:07:50;3.33;;;0.32;;
71941;SDS011;59997;53.300;-6.260;2023-09-19T05:10:16;3.60;;;0.40;;
71941;SDS011;59997;53.300;-6.260;2023-09-19T05:12:43;4.15;;;0.30;;
71941;SDS011;59997;53.300;-6.260;2023-09-19T05:15:12;3.55;;;0.40;;
71941;SDS011;59997;53.300;-6.260;2023-09-19T05:17:39;5.30;;;0.40;;
71941;SDS011;59997;53.300;-6.260;2023-09-19T05:20:05;3.95;;;0.57;;
71941;SDS011;59997;53.300;-6.260;2023-09-19T05:22:38;2.83;;;0.40;;
71941;SDS011;59997;53.300;-6.260;2023-09-19T05:25:06;4.22;;;0.50;;
71941;SDS011;59997;53.300;-6.260;2023-09-19T05:27:32;3.83;;;0.60;;
71941;SDS011;59997;53.300;-6.260;2023-09-19T05:29:58;7.25;;;1.10;;
71941;SDS011;59997;53.300;-6.260;2023-09-19T05:32:24;6.30;;;1.25;;
71941;SDS011;59997;53.300;-6.260;2023-09-19T05:34:50;5.63;;;1.23;;
71941;SDS011;59997;53.300;-6.260;2023-09-19T05:37:18;5.32;;;0.80;;
71941;SDS011;59997;53.300;-6.260;2023-09-19T05:39:44;3.33;;;0.50;;
71941;SDS011;59997;53.300;-6.260;2023-09-19T05:42:10;4.43;;;0.80;;
71941;SDS011;59997;53.300;-6.260;2023-09-19T05:44:35;6.82;;;0.80;;
71941;SDS011;59997;53.300;-6.260;2023-09-19T05:47:02;3.67;;;0.47;;
71941;SDS011;59997;53.300;-6.260;2023-09-19T05:49:28;3.15;;;0.45;;
71941;SDS011;59997;53.300;-6.260;2023-09-19T05:51:53;4.93;;;1.17;;
71941;SDS011;59997;53.300;-6.260;2023-09-19T05:54:20;2.97;;;0.40;;
71941;SDS011;59997;53.300;-6.260;2023-09-19T05:56:45;1.90;;;0.30;;
71941;SDS011;59997;53.300;-6.260;2023-09-19T05:59:12;3.85;;;0.40;;
71941;SDS011;59997;53.300;-6.260;2023-09-19T06:01:40;4.78;;;0.80;;
71941;SDS011;59997;53.300;-6.260;2023-09-19T06:04:07;5.75;;;0.68;;
71941;SDS011;59997;53.300;-6.260;2023-09-19T06:06:32;2.23;;;0.30;;
71941;SDS011;59997;53.300;-6.260;2023-09-19T06:09:01;3.30;;;0.50;;
71941;SDS011;59997;53.300;-6.260;2023-09-19T06:11:27;4.07;;;0.50;;
71941;SDS011;59997;53.300;-6.260;2023-09-19T06:13:54;3.25;;;0.22;;
71941;SDS011;59997;53.300;-6.260;2023-09-19T06:16:20;3.13;;;0.30;;
71941;SDS011;59997;53.300;-6.260;2023-09-19T06:18:46;3.53;;;0.50;;
71941;SDS011;59997;53.300;-6.260;2023-09-19T06:21:11;3.38;;;0.47;;
71941;SDS011;59997;53.300;-6.260;2023-09-19T06:23:37;4.33;;;0.40;;
71941;SDS011;59997;53.300;-6.260;2023-09-19T06:26:02;3.53;;;0.70;;
71941;SDS011;59997;53.300;-6.260;2023-09-19T06:28:31;3.78;;;0.60;;
71941;SDS011;59997;53.300;-6.260;2023-09-19T06:30:58;2.83;;;0.45;;
71941;SDS011;59997;53.300;-6.260;2023-09-19T06:33:24;3.45;;;0.43;;
71941;SDS011;59997;53.300;-6.260;2023-09-19T06:35:50;2.60;;;0.43;;
71941;SDS011;59997;53.300;-6.260;2023-09-19T06:38:17;3.03;;;0.40;;
71941;SDS011;59997;53.300;-6.260;2023-09-19T06:40:44;3.63;;;0.38;;
71941;SDS011;59997;53.300;-6.260;2023-09-19T06:43:10;2.10;;;0.30;;
71941;SDS011;59997;53.300;-6.260;2023-09-19T06:45:36;2.20;;;0.40;;
71941;SDS011;59997;53.300;-6.260;2023-09-19T06:48:02;2.57;;;0.33;;
71941;SDS011;59997;53.300;-6.260;2023-09-19T06:50:28;3.75;;;0.50;;
71941;SDS011;59997;53.300;-6.260;2023-09-19T06:52:56;2.50;;;0.40;;
71941;SDS011;59997;53.300;-6.260;2023-09-19T06:55:24;1.95;;;0.30;;
71941;SDS011;59997;53.300;-6.260;2023-09-19T06:57:53;2.72;;;0.40;;
71941;SDS011;59997;53.300;-6.260;2023-09-19T07:00:22;2.17;;;0.27;;
71941;SDS011;59997;53.300;-6.260;2023-09-19T07:02:55;2.17;;;0.40;;
71941;SDS011;59997;53.300;-6.260;2023-09-19T07:05:26;2.40;;;0.30;;
71941;SDS011;59997;53.300;-6.260;2023-09-19T07:07:54;2.00;;;0.30;;
71941;SDS011;59997;53.300;-6.260;2023-09-19T07:10:21;2.30;;;0.22;;
71941;SDS011;59997;53.300;-6.260;2023-09-19T07:12:54;3.97;;;0.37;;
71941;SDS011;59997;53.300;-6.260;2023-09-19T07:15:23;1.27;;;0.20;;
71941;SDS011;59997;53.300;-6.260;2023-09-19T07:17:50;2.15;;;0.30;;
71941;SDS011;59997;53.300;-6.260;2023-09-19T07:20:19;1.58;;;0.20;;
71941;SDS011;59997;53.300;-6.260;2023-09-19T07:22:45;2.17;;;0.22;;
71941;SDS011;59997;53.300;-6.260;2023-09-19T07:25:13;2.20;;;0.30;;
71941;SDS011;59997;53.300;-6.260;2023-09-19T07:27:42;2.00;;;0.30;;
71941;SDS011;59997;53.300;-6.260;2023-09-19T07:30:09;2.65;;;0.30;;
71941;SDS011;59997;53.300;-6.260;2023-09-19T07:32:36;2.65;;;0.30;;
71941;SDS011;59997;53.300;-6.260;2023-09-19T07:35:03;2.35;;;0.30;;
71941;SDS011;59997;53.300;-6.260;2023-09-19T07:37:30;2.40;;;0.30;;
71941;SDS011;59997;53.300;-6.260;2023-09-19T07:40:01;2.53;;;0.35;;
71941;SDS011;59997;53.300;-6.260;2023-09-19T07:42:34;2.30;;;0.30;;
71941;SDS011;59997;53.300;-6.260;2023-09-19T07:45:00;1.83;;;0.25;;
71941;SDS011;59997;53.300;-6.260;2023-09-19T07:47:26;2.23;;;0.30;;
71941;SDS011;59997;53.300;-6.260;2023-09-19T07:49:52;2.60;;;0.30;;
71941;SDS011;59997;53.300;-6.260;2023-09-19T07:52:18;2.15;;;0.40;;
71941;SDS011;59997;53.300;-6.260;2023-09-19T07:54:44;4.50;;;0.50;;
71941;SDS011;59997;53.300;-6.260;2023-09-19T07:57:10;2.90;;;0.43;;
71941;SDS011;59997;53.300;-6.260;2023-09-19T07:59:36;3.22;;;0.45;;
71941;SDS011;59997;53.300;-6.260;2023-09-19T08:02:03;1.77;;;0.30;;
71941;SDS011;59997;53.300;-6.260;2023-09-19T08:04:30;1.83;;;0.30;;
71941;SDS011;59997;53.300;-6.260;2023-09-19T08:06:58;2.10;;;0.30;;
71941;SDS011;59997;53.300;-6.260;2023-09-19T08:09:24;2.08;;;0.30;;
71941;SDS011;59997;53.300;-6.260;2023-09-19T08:11:49;1.60;;;0.20;;
71941;SDS011;59997;53.300;-6.260;2023-09-19T08:14:15;2.38;;;0.40;;
71941;SDS011;59997;53.300;-6.260;2023-09-19T08:16:41;2.07;;;0.27;;
71941;SDS011;59997;53.300;-6.260;2023-09-19T08:19:08;2.15;;;0.30;;
71941;SDS011;59997;53.300;-6.260;2023-09-19T08:21:35;2.15;;;0.30;;
71941;SDS011;59997;53.300;-6.260;2023-09-19T08:24:01;2.13;;;0.30;;
71941;SDS011;59997;53.300;-6.260;2023-09-19T08:26:29;2.63;;;0.30;;
71941;SDS011;59997;53.300;-6.260;2023-09-19T08:28:56;2.33;;;0.40;;
71941;SDS011;59997;53.300;-6.260;2023-09-19T08:31:21;3.57;;;0.40;;
71941;SDS011;59997;53.300;-6.260;2023-09-19T08:33:48;1.80;;;0.30;;
71941;SDS011;59997;53.300;-6.260;2023-09-19T08:36:14;2.50;;;0.40;;
71941;SDS011;59997;53.300;-6.260;2023-09-19T08:38:40;2.37;;;0.33;;
71941;SDS011;59997;53.300;-6.260;2023-09-19T08:41:06;3.63;;;0.50;;
71941;SDS011;59997;53.300;-6.260;2023-09-19T08:43:33;2.83;;;0.40;;
71941;SDS011;59997;53.300;-6.260;2023-09-19T08:48:30;2.22;;;0.40;;
71941;SDS011;59997;53.300;-6.260;2023-09-19T08:51:30;3.20;;;0.30;;
71941;SDS011;59997;53.300;-6.260;2023-09-19T08:54:07;2.90;;;0.60;;
71941;SDS011;59997;53.300;-6.260;2023-09-19T08:56:35;3.07;;;0.50;;
71941;SDS011;59997;53.300;-6.260;2023-09-19T08:59:04;2.40;;;0.40;;
71941;SDS011;59997;53.300;-6.260;2023-09-19T09:01:33;3.92;;;0.80;;
71941;SDS011;59997;53.300;-6.260;2023-09-19T09:04:01;2.58;;;0.30;;
71941;SDS011;59997;53.300;-6.260;2023-09-19T09:06:27;2.50;;;0.40;;
71941;SDS011;59997;53.300;-6.260;2023-09-19T09:08:54;2.00;;;0.30;;
71941;SDS011;59997;53.300;-6.260;2023-09-19T09:11:20;2.20;;;0.40;;
71941;SDS011;59997;53.300;-6.260;2023-09-19T09:13:46;2.20;;;0.30;;
71941;SDS011;59997;53.300;-6.260;2023-09-19T09:16:13;2.35;;;0.57;;
71941;SDS011;59997;53.300;-6.260;2023-09-19T09:18:42;2.17;;;0.30;;
71941;SDS011;59997;53.300;-6.260;2023-09-19T09:21:11;1.45;;;0.30;;
71941;SDS011;59997;53.300;-6.260;2023-09-19T09:23:40;2.45;;;0.40;;
71941;SDS011;59997;53.300;-6.260;2023-09-19T09:26:06;2.47;;;0.43;;
71941;SDS011;59997;53.300;-6.260;2023-09-19T09:28:33;1.88;;;0.30;;
71941;SDS011;59997;53.300;-6.260;2023-09-19T09:31:00;1.98;;;0.30;;
71941;SDS011;59997;53.300;-6.260;2023-09-19T09:33:34;1.83;;;0.30;;
71941;SDS011;59997;53.300;-6.260;2023-09-19T09:36:01;1.97;;;0.40;;
71941;SDS011;59997;53.300;-6.260;2023-09-19T09:38:49;1.23;;;0.20;;
71941;SDS011;59997;53.300;-6.260;2023-09-19T09:41:15;2.15;;;0.38;;
71941;SDS011;59997;53.300;-6.260;2023-09-19T09:43:52;1.85;;;0.30;;
71941;SDS011;59997;53.300;-6.260;2023-09-19T09:46:19;1.60;;;0.28;;
71941;SDS011;59997;53.300;-6.260;2023-09-19T09:48:55;2.13;;;0.30;;
71941;SDS011;59997;53.300;-6.260;2023-09-19T09:51:43;1.98;;;0.30;;
71941;SDS011;59997;53.300;-6.260;2023-09-19T09:54:33;1.95;;;0.30;;
71941;SDS011;59997;53.300;-6.260;2023-09-19T09:57:03;2.40;;;0.47;;
71941;SDS011;59997;53.300;-6.260;2023-09-19T09:59:52;3.08;;;0.40;;
71941;SDS011;59997;53.300;-6.260;2023-09-19T10:02:29;2.33;;;0.40;;
71941;SDS011;59997;53.300;-6.260;2023-09-19T10:05:10;2.35;;;0.40;;
71941;SDS011;59997;53.300;-6.260;2023-09-19T10:07:45;1.92;;;0.30;;
71941;SDS011;59997;53.300;-6.260;2023-09-19T10:10:35;2.00;;;0.32;;
71941;SDS011;59997;53.300;-6.260;2023-09-19T10:13:08;1.35;;;0.20;;
71941;SDS011;59997;53.300;-6.260;2023-09-19T10:15:43;1.80;;;0.30;;
71941;SDS011;59997;53.300;-6.260;2023-09-19T10:18:20;1.92;;;0.40;;
71941;SDS011;59997;53.300;-6.260;2023-09-19T10:20:47;1.55;;;0.20;;
71941;SDS011;59997;53.300;-6.260;2023-09-19T10:23:15;1.83;;;0.30;;
71941;SDS011;59997;53.300;-6.260;2023-09-19T10:25:47;3.10;;;0.40;;
71941;SDS011;59997;53.300;-6.260;2023-09-19T10:28:14;2.77;;;0.23;;
71941;SDS011;59997;53.300;-6.260;2023-09-19T10:30:41;2.40;;;0.35;;
71941;SDS011;59997;53.300;-6.260;2023-09-19T10:33:15;2.05;;;0.20;;
71941;SDS011;59997;53.300;-6.260;2023-09-19T10:35:46;1.73;;;0.30;;
71941;SDS011;59997;53.300;-6.260;2023-09-19T10:38:13;2.58;;;0.40;;
71941;SDS011;59997;53.300;-6.260;2023-09-19T10:40:40;3.27;;;0.47;;
71941;SDS011;59997;53.300;-6.260;2023-09-19T10:43:08;2.90;;;0.40;;
71941;SDS011;59997;53.300;-6.260;2023-09-19T10:45:38;1.83;;;0.30;;
71941;SDS011;59997;53.300;-6.260;2023-09-19T10:48:04;2.13;;;0.30;;
71941;SDS011;59997;53.300;-6.260;2023-09-19T10:50:41;2.50;;;0.50;;
71941;SDS011;59997;53.300;-6.260;2023-09-19T10:53:10;2.43;;;0.37;;
71941;SDS011;59997;53.300;-6.260;2023-09-19T10:55:37;2.35;;;0.47;;
71941;SDS011;59997;53.300;-6.260;2023-09-19T10:58:04;2.00;;;0.32;;
71941;SDS011;59997;53.300;-6.260;2023-09-19T11:00:55;2.30;;;0.43;;
71941;SDS011;59997;53.300;-6.260;2023-09-19T11:03:22;3.05;;;0.68;;
71941;SDS011;59997;53.300;-6.260;2023-09-19T11:06:06;1.87;;;0.33;;
71941;SDS011;59997;53.300;-6.260;2023-09-19T11:08:54;2.53;;;0.30;;
71941;SDS011;59997;53.300;-6.260;2023-09-19T11:11:53;2.38;;;0.40;;
71941;SDS011;59997;53.300;-6.260;2023-09-19T11:30:30;2.95;;;0.50;;
71941;SDS011;59997;53.300;-6.260;2023-09-19T11:36:11;2.63;;;0.50;;
71941;SDS011;59997;53.300;-6.260;2023-09-19T11:43:47;3.17;;;0.50;;
71941;SDS011;59997;53.300;-6.260;2023-09-19T11:46:15;2.75;;;0.60;;
71941;SDS011;59997;53.300;-6.260;2023-09-19T11:48:42;3.10;;;0.70;;
71941;SDS011;59997;53.300;-6.260;2023-09-19T11:51:13;3.22;;;0.63;;
71941;SDS011;59997;53.300;-6.260;2023-09-19T11:53:51;2.93;;;0.57;;
71941;SDS011;59997;53.300;-6.260;2023-09-19T11:56:28;2.97;;;0.60;;
71941;SDS011;59997;53.300;-6.260;2023-09-19T11:58:55;2.85;;;0.55;;
71941;SDS011;59997;53.300;-6.260;2023-09-19T12:01:31;2.50;;;0.60;;
71941;SDS011;59997;53.300;-6.260;2023-09-19T12:03:58;1.92;;;0.30;;
71941;SDS011;59997;53.300;-6.260;2023-09-19T12:06:27;3.20;;;0.60;;
71941;SDS011;59997;53.300;-6.260;2023-09-19T12:08:54;3.85;;;0.95;;
71941;SDS011;59997;53.300;-6.260;2023-09-19T12:11:22;3.67;;;0.50;;
71941;SDS011;59997;53.300;-6.260;2023-09-19T12:13:50;4.20;;;1.00;;
71941;SDS011;59997;53.300;-6.260;2023-09-19T12:16:16;4.05;;;0.60;;
71941;SDS011;59997;53.300;-6.260;2023-09-19T12:18:44;4.18;;;0.80;;
71941;SDS011;59997;53.300;-6.260;2023-09-19T12:21:21;3.55;;;0.60;;
71941;SDS011;59997;53.300;-6.260;2023-09-19T12:24:06;3.05;;;0.60;;
71941;SDS011;59997;53.300;-6.260;2023-09-19T12:26:44;3.90;;;0.77;;
71941;SDS011;59997;53.300;-6.260;2023-09-19T12:29:13;4.88;;;0.80;;
71941;SDS011;59997;53.300;-6.260;2023-09-19T12:34:28;5.47;;;0.90;;
71941;SDS011;59997;53.300;-6.260;2023-09-19T12:39:47;3.93;;;0.50;;
71941;SDS011;59997;53.300;-6.260;2023-09-19T12:42:22;3.13;;;0.60;;
71941;SDS011;59997;53.300;-6.260;2023-09-19T12:44:49;2.80;;;0.52;;
71941;SDS011;59997;53.300;-6.260;2023-09-19T12:47:20;2.72;;;0.52;;
71941;SDS011;59997;53.300;-6.260;2023-09-19T12:52:38;3.57;;;0.50;;
71941;SDS011;59997;53.300;-6.260;2023-09-19T12:55:05;3.15;;;0.50;;
71941;SDS011;59997;53.300;-6.260;2023-09-19T12:57:33;4.00;;;0.40;;
71941;SDS011;59997;53.300;-6.260;2023-09-19T13:00:03;4.50;;;0.47;;
71941;SDS011;59997;53.300;-6.260;2023-09-19T13:02:35;3.75;;;0.60;;
71941;SDS011;59997;53.300;-6.260;2023-09-19T13:05:01;2.53;;;0.40;;
71941;SDS011;59997;53.300;-6.260;2023-09-19T13:07:44;3.13;;;0.60;;
71941;SDS011;59997;53.300;-6.260;2023-09-19T13:10:14;3.05;;;0.70;;
71941;SDS011;59997;53.300;-6.260;2023-09-19T13:12:41;3.70;;;0.70;;
71941;SDS011;59997;53.300;-6.260;2023-09-19T13:15:13;2.65;;;0.50;;
71941;SDS011;59997;53.300;-6.260;2023-09-19T13:17:44;3.08;;;0.52;;
71941;SDS011;59997;53.300;-6.260;2023-09-19T13:22:55;3.45;;;0.50;;
71941;SDS011;59997;53.300;-6.260;2023-09-19T13:25:25;2.80;;;0.50;;
71941;SDS011;59997;53.300;-6.260;2023-09-19T13:27:53;3.70;;;0.60;;
71941;SDS011;59997;53.300;-6.260;2023-09-19T13:30:24;2.72;;;0.50;;
71941;SDS011;59997;53.300;-6.260;2023-09-19T13:33:06;2.67;;;0.45;;
71941;SDS011;59997;53.300;-6.260;2023-09-19T13:35:32;3.03;;;0.60;;
71941;SDS011;59997;53.300;-6.260;2023-09-19T13:37:58;2.53;;;0.40;;
71941;SDS011;59997;53.300;-6.260;2023-09-19T13:40:24;3.17;;;0.53;;
71941;SDS011;59997;53.300;-6.260;2023-09-19T13:42:52;3.23;;;0.57;;
71941;SDS011;59997;53.300;-6.260;2023-09-19T13:45:18;4.93;;;0.73;;
71941;SDS011;59997;53.300;-6.260;2023-09-19T13:47:47;4.63;;;0.68;;
71941;SDS011;59997;53.300;-6.260;2023-09-19T13:50:12;3.63;;;0.70;;
71941;SDS011;59997;53.300;-6.260;2023-09-19T13:52:38;3.50;;;0.50;;
71941;SDS011;59997;53.300;-6.260;2023-09-19T13:55:03;4.33;;;0.87;;
71941;SDS011;59997;53.300;-6.260;2023-09-19T13:57:30;6.05;;;0.90;;
71941;SDS011;59997;53.300;-6.260;2023-09-19T13:59:56;4.20;;;0.60;;
71941;SDS011;59997;53.300;-6.260;2023-09-19T14:02:22;3.95;;;0.88;;
71941;SDS011;59997;53.300;-6.260;2023-09-19T14:04:48;3.13;;;0.60;;
71941;SDS011;59997;53.300;-6.260;2023-09-19T14:07:14;4.93;;;0.68;;
71941;SDS011;59997;53.300;-6.260;2023-09-19T14:09:40;4.82;;;0.70;;
71941;SDS011;59997;53.300;-6.260;2023-09-19T14:12:06;5.80;;;0.63;;
71941;SDS011;59997;53.300;-6.260;2023-09-19T14:14:31;4.13;;;0.75;;
71941;SDS011;59997;53.300;-6.260;2023-09-19T14:16:57;4.23;;;0.63;;
71941;SDS011;59997;53.300;-6.260;2023-09-19T14:19:26;4.75;;;0.70;;
71941;SDS011;59997;53.300;-6.260;2023-09-19T14:21:52;5.25;;;0.77;;
71941;SDS011;59997;53.300;-6.260;2023-09-19T14:24:20;4.28;;;0.60;;
71941;SDS011;59997;53.300;-6.260;2023-09-19T14:26:46;7.68;;;1.02;;
71941;SDS011;59997;53.300;-6.260;2023-09-19T14:29:12;8.33;;;1.37;;
71941;SDS011;59997;53.300;-6.260;2023-09-19T14:31:38;5.60;;;1.20;;
71941;SDS011;59997;53.300;-6.260;2023-09-19T14:34:05;11.40;;;1.60;;
71941;SDS011;59997;53.300;-6.260;2023-09-19T14:36:31;7.55;;;1.10;;
71941;SDS011;59997;53.300;-6.260;2023-09-19T14:38:57;8.23;;;1.50;;
71941;SDS011;59997;53.300;-6.260;2023-09-19T14:41:22;7.32;;;1.58;;
71941;SDS011;59997;53.300;-6.260;2023-09-19T14:43:50;9.07;;;1.60;;
71941;SDS011;59997;53.300;-6.260;2023-09-19T14:46:17;8.65;;;1.42;;
71941;SDS011;59997;53.300;-6.260;2023-09-19T14:48:44;12.20;;;1.77;;
71941;SDS011;59997;53.300;-6.260;2023-09-19T14:51:13;10.55;;;2.03;;
71941;SDS011;59997;53.300;-6.260;2023-09-19T14:53:41;14.25;;;2.53;;
71941;SDS011;59997;53.300;-6.260;2023-09-19T14:56:08;13.17;;;2.53;;
71941;SDS011;59997;53.300;-6.260;2023-09-19T14:58:34;9.40;;;1.80;;
71941;SDS011;59997;53.300;-6.260;2023-09-19T15:01:07;10.05;;;1.65;;
71941;SDS011;59997;53.300;-6.260;2023-09-19T15:03:35;10.60;;;2.13;;
71941;SDS011;59997;53.300;-6.260;2023-09-19T15:06:02;9.05;;;2.40;;
71941;SDS011;59997;53.300;-6.260;2023-09-19T15:08:29;10.10;;;1.80;;
71941;SDS011;59997;53.300;-6.260;2023-09-19T15:10:55;12.73;;;1.80;;
71941;SDS011;59997;53.300;-6.260;2023-09-19T15:13:23;12.60;;;2.15;;
71941;SDS011;59997;53.300;-6.260;2023-09-19T15:15:53;10.55;;;1.90;;
71941;SDS011;59997;53.300;-6.260;2023-09-19T15:18:23;11.80;;;1.65;;
71941;SDS011;59997;53.300;-6.260;2023-09-19T15:20:48;11.87;;;1.80;;
71941;SDS011;59997;53.300;-6.260;2023-09-19T15:23:14;9.77;;;2.90;;
71941;SDS011;59997;53.300;-6.260;2023-09-19T15:25:47;11.57;;;1.95;;
71941;SDS011;59997;53.300;-6.260;2023-09-19T15:28:13;12.93;;;1.90;;
71941;SDS011;59997;53.300;-6.260;2023-09-19T15:30:38;10.73;;;2.10;;
71941;SDS011;59997;53.300;-6.260;2023-09-19T15:33:04;9.17;;;1.70;;